Cathma — PJTL — position and weather

sailwx.info

Track history (hours):
 
Tides and Currents Weather Stations Pressure Air Temp Water Temp Dewpoint Dewpoint Depression Visibility Wind Speed Wind Dir Waves Ship Positions

Cathma

Last reported at 2015-Jun-20 17:33 UTC. Time now 2015-Jul-04 10:08 UTC.
Position N 55°45' E 015°47'.
Warning: this ship's position is 13 days out of date.

Length 111 m; draft 6.3 m.

Type: Ship. MMSI: 306832000.

Date/timePositionNaut miles runAvg speedWind from/ knotsBaromVisibWave heightAir tempDewpointWater temp
2015-Jun-20 17:33N 55°45' E 015°47'10 9.7
2015-Jun-20 16:33N 55°40' E 015°32'10 9.9
2015-Jun-20 15:34N 55°35' E 015°17'1010.0
2015-Jun-20 14:31N 55°30' E 015°01'1010.2
2015-Jun-20 13:34N 55°25' E 014°46'10 9.8
2015-Jun-20 12:31N 55°18' E 014°33'9 9.9
2015-Jun-20 11:33N 55°11' E 014°22'1010.0
2015-Jun-20 10:33N 55°03' E 014°12'69 9.7
2015-Jun-20 03:30N 54°34' E 012°24'9 9.6
2015-Jun-20 02:34N 54°27' E 012°14'9 9.2
2015-Jun-20 01:34N 54°24' E 011°58'10 9.8
2015-Jun-20 00:33N 54°26' E 011°42'1010.2
2015-Jun-19 23:33N 54°30' E 011°26'1110.6
2015-Jun-19 22:33N 54°34' E 011°09'1410.0
2015-Jun-19 21:07N 54°34' E 010°44'5 9.9
2015-Jun-19 20:33N 54°33' E 010°35'9 9.4
2015-Jun-19 19:33N 54°30' E 010°20'1010.0
2015-Jun-19 18:34N 54°22' E 010°09'3 2.9
2015-Jun-19 17:33N 54°22' E 010°04'8 8.2
2015-Jun-19 16:34N 54°22' E 009°50'8 8.0
2015-Jun-19 15:33N 54°17' E 009°39'7 7.4
2015-Jun-19 14:33N 54°11' E 009°31'10 7.8
2015-Jun-19 13:20N 54°05' E 009°19'5 6.0
2015-Jun-19 12:31N 54°00' E 009°18'4 4.2
2015-Jun-19 11:33N 53°57' E 009°14'2 2.5
2015-Jun-19 10:33N 53°55' E 009°11'0 0.0
2015-Jun-19 09:33N 53°55' E 009°11'0 0.0
2015-Jun-19 08:33N 53°55' E 009°11'2 1.7
2015-Jun-19 07:33N 53°54' E 009°09'1 1.4
2015-Jun-19 06:33N 53°53' E 009°07'2 2.1
2015-Jun-19 05:34N 53°52' E 009°03'9 8.8
2015-Jun-19 04:34N 53°50' E 008°49'9 8.9
2015-Jun-19 03:34N 53°57' E 008°38'9 9.3
2015-Jun-19 02:33N 53°59' E 008°23'9 9.4
2015-Jun-19 01:33N 53°59' E 008°07'1010.3
2015-Jun-19 00:33N 53°57' E 007°50'9 9.5
2015-Jun-18 23:34N 53°55' E 007°34'10 9.9
2015-Jun-18 22:34N 53°52' E 007°18'4510.4
2015-Jun-18 18:14N 53°41' E 006°05'710.0
2015-Jun-18 17:33N 53°39' E 005°54'9 9.5
2015-Jun-18 16:33N 53°36' E 005°39'9 9.1
2015-Jun-18 15:33N 53°33' E 005°24'9 8.9
2015-Jun-18 14:33N 53°30' E 005°10'9 8.9
2015-Jun-18 13:34N 53°27' E 004°56'9 9.0
2015-Jun-18 12:33N 53°23' E 004°43'26 8.8
2015-Jun-18 09:32N 52°60' E 004°22'9 8.9
2015-Jun-18 08:33N 52°52' E 004°16'9 9.3
2015-Jun-18 07:33N 52°44' E 004°07'1110.6
2015-Jun-18 06:33N 52°37' E 003°55'8710.5
2015-Jun-17 22:17N 51°34' E 002°18'6 7.8
2015-Jun-17 21:32N 51°29' E 002°12'8 7.5
2015-Jun-17 20:27N 51°23' E 002°03'7 7.6
2015-Jun-17 19:33N 51°18' E 001°56'8 8.2
2015-Jun-17 18:33N 51°12' E 001°47'9 8.5
2015-Jun-17 17:33N 51°05' E 001°39'9 9.4
2015-Jun-17 16:33N 50°58' E 001°29'10810.4
2015-Jun-17 06:12N 50°10' W 001°03'810.7
2015-Jun-17 05:27N 50°08' W 001°15'9 9.5
2015-Jun-17 04:33N 50°06' W 001°28'12 8.0
2015-Jun-17 03:07N 50°03' W 001°45'200 8.5
2015-Jun-16 03:33N 50°51' W 006°50'1010.1
2015-Jun-16 02:33N 50°59' W 007°01'1110.2
2015-Jun-16 01:28N 51°06' W 007°14'2910.0
2015-Jun-15 22:33N 51°27' W 007°46'1010.1
2015-Jun-15 21:33N 51°34' W 007°58'1010.1
2015-Jun-15 20:33N 51°42' W 008°09'10 9.6
2015-Jun-15 19:33N 51°50' W 008°16'7 6.6
2015-Jun-15 18:33N 51°54' W 008°25'0 0.3
2015-Jun-15 17:33N 51°54' W 008°25'0 0.0
2015-Jun-15 16:33N 51°54' W 008°25'0 0.0
2015-Jun-15 15:33N 51°54' W 008°25'0 0.0
2015-Jun-15 14:32N 51°54' W 008°25'0 0.0
2015-Jun-15 13:32N 51°54' W 008°25'0 0.0
2015-Jun-15 12:31N 51°54' W 008°25'0 0.0
2015-Jun-15 11:31N 51°54' W 008°25'0 0.0
2015-Jun-15 10:33N 51°54' W 008°25'0 0.0
2015-Jun-15 09:33N 51°54' W 008°25'0 0.0
2015-Jun-15 08:33N 51°54' W 008°25'0 0.0
2015-Jun-15 07:32N 51°54' W 008°25'0 0.0
2015-Jun-15 06:32N 51°54' W 008°25'0 0.0
2015-Jun-15 05:31N 51°54' W 008°25'0 0.0
2015-Jun-15 04:31N 51°54' W 008°25'0 0.0
2015-Jun-15 03:30N 51°54' W 008°25'0 0.0
2015-Jun-15 02:33N 51°54' W 008°25'0 0.0
2015-Jun-15 01:33N 51°54' W 008°25'0 0.0
2015-Jun-15 00:32N 51°54' W 008°25'0 0.0
2015-Jun-14 23:32N 51°54' W 008°25'0 0.0
2015-Jun-14 22:31N 51°54' W 008°25'0 0.0
2015-Jun-14 21:31N 51°54' W 008°25'0 0.0
2015-Jun-14 20:33N 51°54' W 008°25'0 0.0
2015-Jun-14 19:33N 51°54' W 008°25'0 0.0
2015-Jun-14 18:32N 51°54' W 008°25'0 0.0
2015-Jun-14 17:32N 51°54' W 008°25'0 0.0
2015-Jun-14 16:32N 51°54' W 008°25'0 0.0
2015-Jun-14 15:31N 51°54' W 008°25'0 0.0
2015-Jun-14 14:31N 51°54' W 008°25'0 0.0
2015-Jun-14 13:30N 51°54' W 008°25'0 0.0
2015-Jun-14 12:33N 51°54' W 008°25'0 0.0
2015-Jun-14 11:32N 51°54' W 008°25'0 0.0
2015-Jun-14 10:32N 51°54' W 008°25'0 0.0
2015-Jun-14 09:32N 51°54' W 008°25'0 0.0
2015-Jun-14 08:31N 51°54' W 008°25'0 0.0
2015-Jun-14 07:31N 51°54' W 008°25'0 0.0
2015-Jun-14 06:33N 51°54' W 008°25'0 0.0
2015-Jun-14 05:33N 51°54' W 008°25'0 0.0
2015-Jun-14 04:32N 51°54' W 008°25'0 0.0
2015-Jun-14 03:32N 51°54' W 008°25'0 0.0
2015-Jun-14 02:32N 51°54' W 008°25'0 0.0
2015-Jun-14 01:31N 51°54' W 008°25'0 0.0
2015-Jun-14 00:31N 51°54' W 008°25'0 0.0
2015-Jun-13 23:33N 51°54' W 008°25'0 0.0
2015-Jun-13 22:30N 51°54' W 008°25'0 0.0
2015-Jun-13 21:32N 51°54' W 008°25'0 0.0
2015-Jun-13 20:32N 51°54' W 008°25'0 0.0
2015-Jun-13 19:32N 51°54' W 008°25'0 0.0
2015-Jun-13 18:31N 51°54' W 008°25'0 0.0
2015-Jun-13 17:31N 51°54' W 008°25'0 0.0
2015-Jun-13 16:33N 51°54' W 008°25'0 0.0
2015-Jun-13 15:33N 51°54' W 008°25'0 0.0
2015-Jun-13 14:32N 51°54' W 008°25'0 0.0
2015-Jun-13 13:32N 51°54' W 008°25'0 0.0
2015-Jun-13 12:32N 51°54' W 008°25'0 0.0
2015-Jun-13 11:31N 51°54' W 008°25'0 0.0
2015-Jun-13 10:31N 51°54' W 008°25'0 0.0
2015-Jun-13 09:33N 51°54' W 008°25'0 0.0
2015-Jun-13 08:33N 51°54' W 008°25'0 0.0
2015-Jun-13 07:32N 51°54' W 008°25'0 0.0
2015-Jun-13 06:32N 51°54' W 008°25'0 0.0
2015-Jun-13 05:31N 51°54' W 008°25'0 0.0
2015-Jun-13 04:31N 51°54' W 008°25'0 0.0
2015-Jun-13 03:28N 51°54' W 008°25'0 0.0
2015-Jun-13 02:33N 51°54' W 008°25'0 0.0
2015-Jun-13 01:33N 51°54' W 008°25'0 0.0
2015-Jun-13 00:32N 51°54' W 008°25'0 0.0
2015-Jun-12 23:32N 51°54' W 008°25'0 0.0
2015-Jun-12 22:31N 51°54' W 008°25'0 0.0
2015-Jun-12 21:31N 51°54' W 008°25'0 0.0
2015-Jun-12 20:31N 51°54' W 008°25'0 0.0
2015-Jun-12 19:33N 51°54' W 008°25'0 0.0
2015-Jun-12 18:30N 51°54' W 008°25'0 0.0
2015-Jun-12 17:32N 51°54' W 008°25'0 0.0
2015-Jun-12 16:29N 51°54' W 008°25'0 0.0
2015-Jun-12 15:31N 51°54' W 008°25'0 0.0
2015-Jun-12 14:31N 51°54' W 008°25'0 0.0
2015-Jun-12 13:33N 51°54' W 008°25'0 0.0
2015-Jun-12 12:34N 51°54' W 008°25'7 6.6
2015-Jun-12 11:33N 51°51' W 008°16'5 4.7
2015-Jun-12 10:31N 51°46' W 008°16'4 4.5
2015-Jun-12 09:33N 51°43' W 008°11'1211.5
2015-Jun-12 08:33N 51°35' W 007°58'1211.6
2015-Jun-12 07:33N 51°27' W 007°44'1311.2
2015-Jun-12 06:26N 51°18' W 007°30'17310.6
2015-Jun-11 14:09N 49°59' W 003°28'811.1
2015-Jun-11 13:27N 49°59' W 003°16'1411.2
2015-Jun-11 12:14N 50°01' W 002°55'811.8
2015-Jun-11 11:33N 50°03' W 002°43'10712.8
2015-Jun-11 03:14N 50°32' W 000°02'710.6
2015-Jun-11 02:33N 50°34' E 000°09'1111.0
2015-Jun-11 01:33N 50°37' E 000°26'1212.0
2015-Jun-11 00:33N 50°41' E 000°43'2713.3
2015-Jun-10 22:34N 50°58' E 001°16'1212.5
2015-Jun-10 21:33N 51°06' E 001°31'1111.4
2015-Jun-10 20:33N 51°14' E 001°45'1110.9
2015-Jun-10 19:33N 51°23' E 001°55'1110.9
2015-Jun-10 18:33N 51°31' E 002°06'1111.0
2015-Jun-10 17:33N 51°39' E 002°18'  
Track history (hours):
 
Tides and Currents Weather Stations Pressure Air Temp Water Temp Dewpoint Dewpoint Depression Visibility Wind Speed Wind Dir Waves Ship Positions

Cathma

Last reported at 2015-Jun-20 17:33 UTC. Time now 2015-Jul-04 10:08 UTC.
Position N 55°45' E 015°47'.
Warning: this ship's position is 13 days out of date.

Length 111 m; draft 6.3 m.

Type: Ship. MMSI: 306832000.

Date/timePositionNaut miles runAvg speedWind from/ knotsBaromVisibWave heightAir tempDewpointWater temp
2015-Jun-20 17:33N 55°45' E 015°47'10 9.7
2015-Jun-20 16:33N 55°40' E 015°32'10 9.9
2015-Jun-20 15:34N 55°35' E 015°17'1010.0
2015-Jun-20 14:31N 55°30' E 015°01'1010.2
2015-Jun-20 13:34N 55°25' E 014°46'10 9.8
2015-Jun-20 12:31N 55°18' E 014°33'9 9.9
2015-Jun-20 11:33N 55°11' E 014°22'1010.0
2015-Jun-20 10:33N 55°03' E 014°12'69 9.7
2015-Jun-20 03:30N 54°34' E 012°24'9 9.6
2015-Jun-20 02:34N 54°27' E 012°14'9 9.2
2015-Jun-20 01:34N 54°24' E 011°58'10 9.8
2015-Jun-20 00:33N 54°26' E 011°42'1010.2
2015-Jun-19 23:33N 54°30' E 011°26'1110.6
2015-Jun-19 22:33N 54°34' E 011°09'1410.0
2015-Jun-19 21:07N 54°34' E 010°44'5 9.9
2015-Jun-19 20:33N 54°33' E 010°35'9 9.4
2015-Jun-19 19:33N 54°30' E 010°20'1010.0
2015-Jun-19 18:34N 54°22' E 010°09'3 2.9
2015-Jun-19 17:33N 54°22' E 010°04'8 8.2
2015-Jun-19 16:34N 54°22' E 009°50'8 8.0
2015-Jun-19 15:33N 54°17' E 009°39'7 7.4
2015-Jun-19 14:33N 54°11' E 009°31'10 7.8
2015-Jun-19 13:20N 54°05' E 009°19'5 6.0
2015-Jun-19 12:31N 54°00' E 009°18'4 4.2
2015-Jun-19 11:33N 53°57' E 009°14'2 2.5
2015-Jun-19 10:33N 53°55' E 009°11'0 0.0
2015-Jun-19 09:33N 53°55' E 009°11'0 0.0
2015-Jun-19 08:33N 53°55' E 009°11'2 1.7
2015-Jun-19 07:33N 53°54' E 009°09'1 1.4
2015-Jun-19 06:33N 53°53' E 009°07'2 2.1
2015-Jun-19 05:34N 53°52' E 009°03'9 8.8
2015-Jun-19 04:34N 53°50' E 008°49'9 8.9
2015-Jun-19 03:34N 53°57' E 008°38'9 9.3
2015-Jun-19 02:33N 53°59' E 008°23'9 9.4
2015-Jun-19 01:33N 53°59' E 008°07'1010.3
2015-Jun-19 00:33N 53°57' E 007°50'9 9.5
2015-Jun-18 23:34N 53°55' E 007°34'10 9.9
2015-Jun-18 22:34N 53°52' E 007°18'4510.4
2015-Jun-18 18:14N 53°41' E 006°05'710.0
2015-Jun-18 17:33N 53°39' E 005°54'9 9.5
2015-Jun-18 16:33N 53°36' E 005°39'9 9.1
2015-Jun-18 15:33N 53°33' E 005°24'9 8.9
2015-Jun-18 14:33N 53°30' E 005°10'9 8.9
2015-Jun-18 13:34N 53°27' E 004°56'9 9.0
2015-Jun-18 12:33N 53°23' E 004°43'26 8.8
2015-Jun-18 09:32N 52°60' E 004°22'9 8.9
2015-Jun-18 08:33N 52°52' E 004°16'9 9.3
2015-Jun-18 07:33N 52°44' E 004°07'1110.6
2015-Jun-18 06:33N 52°37' E 003°55'8710.5
2015-Jun-17 22:17N 51°34' E 002°18'6 7.8
2015-Jun-17 21:32N 51°29' E 002°12'8 7.5
2015-Jun-17 20:27N 51°23' E 002°03'7 7.6
2015-Jun-17 19:33N 51°18' E 001°56'8 8.2
2015-Jun-17 18:33N 51°12' E 001°47'9 8.5
2015-Jun-17 17:33N 51°05' E 001°39'9 9.4
2015-Jun-17 16:33N 50°58' E 001°29'10810.4
2015-Jun-17 06:12N 50°10' W 001°03'810.7
2015-Jun-17 05:27N 50°08' W 001°15'9 9.5
2015-Jun-17 04:33N 50°06' W 001°28'12 8.0
2015-Jun-17 03:07N 50°03' W 001°45'200 8.5
2015-Jun-16 03:33N 50°51' W 006°50'1010.1
2015-Jun-16 02:33N 50°59' W 007°01'1110.2
2015-Jun-16 01:28N 51°06' W 007°14'2910.0
2015-Jun-15 22:33N 51°27' W 007°46'1010.1
2015-Jun-15 21:33N 51°34' W 007°58'1010.1
2015-Jun-15 20:33N 51°42' W 008°09'10 9.6
2015-Jun-15 19:33N 51°50' W 008°16'7 6.6
2015-Jun-15 18:33N 51°54' W 008°25'0 0.3
2015-Jun-15 17:33N 51°54' W 008°25'0 0.0
2015-Jun-15 16:33N 51°54' W 008°25'0 0.0
2015-Jun-15 15:33N 51°54' W 008°25'0 0.0
2015-Jun-15 14:32N 51°54' W 008°25'0 0.0
2015-Jun-15 13:32N 51°54' W 008°25'0 0.0
2015-Jun-15 12:31N 51°54' W 008°25'0 0.0
2015-Jun-15 11:31N 51°54' W 008°25'0 0.0
2015-Jun-15 10:33N 51°54' W 008°25'0 0.0
2015-Jun-15 09:33N 51°54' W 008°25'0 0.0
2015-Jun-15 08:33N 51°54' W 008°25'0 0.0
2015-Jun-15 07:32N 51°54' W 008°25'0 0.0
2015-Jun-15 06:32N 51°54' W 008°25'0 0.0
2015-Jun-15 05:31N 51°54' W 008°25'0 0.0
2015-Jun-15 04:31N 51°54' W 008°25'0 0.0
2015-Jun-15 03:30N 51°54' W 008°25'0 0.0
2015-Jun-15 02:33N 51°54' W 008°25'0 0.0
2015-Jun-15 01:33N 51°54' W 008°25'0 0.0
2015-Jun-15 00:32N 51°54' W 008°25'0 0.0
2015-Jun-14 23:32N 51°54' W 008°25'0 0.0
2015-Jun-14 22:31N 51°54' W 008°25'0 0.0
2015-Jun-14 21:31N 51°54' W 008°25'0 0.0
2015-Jun-14 20:33N 51°54' W 008°25'0 0.0
2015-Jun-14 19:33N 51°54' W 008°25'0 0.0
2015-Jun-14 18:32N 51°54' W 008°25'0 0.0
2015-Jun-14 17:32N 51°54' W 008°25'0 0.0
2015-Jun-14 16:32N 51°54' W 008°25'0 0.0
2015-Jun-14 15:31N 51°54' W 008°25'0 0.0
2015-Jun-14 14:31N 51°54' W 008°25'0 0.0
2015-Jun-14 13:30N 51°54' W 008°25'0 0.0
2015-Jun-14 12:33N 51°54' W 008°25'0 0.0
2015-Jun-14 11:32N 51°54' W 008°25'0 0.0
2015-Jun-14 10:32N 51°54' W 008°25'0 0.0
2015-Jun-14 09:32N 51°54' W 008°25'0 0.0
2015-Jun-14 08:31N 51°54' W 008°25'0 0.0
2015-Jun-14 07:31N 51°54' W 008°25'0 0.0
2015-Jun-14 06:33N 51°54' W 008°25'0 0.0
2015-Jun-14 05:33N 51°54' W 008°25'0 0.0
2015-Jun-14 04:32N 51°54' W 008°25'0 0.0
2015-Jun-14 03:32N 51°54' W 008°25'0 0.0
2015-Jun-14 02:32N 51°54' W 008°25'0 0.0
2015-Jun-14 01:31N 51°54' W 008°25'0 0.0
2015-Jun-14 00:31N 51°54' W 008°25'0 0.0
2015-Jun-13 23:33N 51°54' W 008°25'0 0.0
2015-Jun-13 22:30N 51°54' W 008°25'0 0.0
2015-Jun-13 21:32N 51°54' W 008°25'0 0.0
2015-Jun-13 20:32N 51°54' W 008°25'0 0.0
2015-Jun-13 19:32N 51°54' W 008°25'0 0.0
2015-Jun-13 18:31N 51°54' W 008°25'0 0.0
2015-Jun-13 17:31N 51°54' W 008°25'0 0.0
2015-Jun-13 16:33N 51°54' W 008°25'0 0.0
2015-Jun-13 15:33N 51°54' W 008°25'0 0.0
2015-Jun-13 14:32N 51°54' W 008°25'0 0.0
2015-Jun-13 13:32N 51°54' W 008°25'0 0.0
2015-Jun-13 12:32N 51°54' W 008°25'0 0.0
2015-Jun-13 11:31N 51°54' W 008°25'0 0.0
2015-Jun-13 10:31N 51°54' W 008°25'0 0.0
2015-Jun-13 09:33N 51°54' W 008°25'0 0.0
2015-Jun-13 08:33N 51°54' W 008°25'0 0.0
2015-Jun-13 07:32N 51°54' W 008°25'0 0.0
2015-Jun-13 06:32N 51°54' W 008°25'0 0.0
2015-Jun-13 05:31N 51°54' W 008°25'0 0.0
2015-Jun-13 04:31N 51°54' W 008°25'0 0.0
2015-Jun-13 03:28N 51°54' W 008°25'0 0.0
2015-Jun-13 02:33N 51°54' W 008°25'0 0.0
2015-Jun-13 01:33N 51°54' W 008°25'0 0.0
2015-Jun-13 00:32N 51°54' W 008°25'0 0.0
2015-Jun-12 23:32N 51°54' W 008°25'0 0.0
2015-Jun-12 22:31N 51°54' W 008°25'0 0.0
2015-Jun-12 21:31N 51°54' W 008°25'0 0.0
2015-Jun-12 20:31N 51°54' W 008°25'0 0.0
2015-Jun-12 19:33N 51°54' W 008°25'0 0.0
2015-Jun-12 18:30N 51°54' W 008°25'0 0.0
2015-Jun-12 17:32N 51°54' W 008°25'0 0.0
2015-Jun-12 16:29N 51°54' W 008°25'0 0.0
2015-Jun-12 15:31N 51°54' W 008°25'0 0.0
2015-Jun-12 14:31N 51°54' W 008°25'0 0.0
2015-Jun-12 13:33N 51°54' W 008°25'0 0.0
2015-Jun-12 12:34N 51°54' W 008°25'7 6.6
2015-Jun-12 11:33N 51°51' W 008°16'5 4.7
2015-Jun-12 10:31N 51°46' W 008°16'4 4.5
2015-Jun-12 09:33N 51°43' W 008°11'1211.5
2015-Jun-12 08:33N 51°35' W 007°58'1211.6
2015-Jun-12 07:33N 51°27' W 007°44'1311.2
2015-Jun-12 06:26N 51°18' W 007°30'17310.6
2015-Jun-11 14:09N 49°59' W 003°28'811.1
2015-Jun-11 13:27N 49°59' W 003°16'1411.2
2015-Jun-11 12:14N 50°01' W 002°55'811.8
2015-Jun-11 11:33N 50°03' W 002°43'10712.8
2015-Jun-11 03:14N 50°32' W 000°02'710.6
2015-Jun-11 02:33N 50°34' E 000°09'1111.0
2015-Jun-11 01:33N 50°37' E 000°26'1212.0
2015-Jun-11 00:33N 50°41' E 000°43'2713.3
2015-Jun-10 22:34N 50°58' E 001°16'1212.5
2015-Jun-10 21:33N 51°06' E 001°31'1111.4
2015-Jun-10 20:33N 51°14' E 001°45'1110.9
2015-Jun-10 19:33N 51°23' E 001°55'1110.9
2015-Jun-10 18:33N 51°31' E 002°06'1111.0
2015-Jun-10 17:33N 51°39' E 002°18'  

Dump ship's entire track history